Time;durP1;ratioP1;P1;durP2;ratioP2;P2;SDS_P1;SDS_P2;PMS_P1;PMS_P2;Temp;Humidity;BMP_temperature;BMP_pressure;BME280_temperature;BME280_humidity;BME280_pressure;Samples;Min_cycle;Max_cycle;Signal;HPM_P1;HPM_P2
2022/01/07 00:02:17;;;;;;;3.90;2.40;;;;;;;-4.79;73.73;97035.03;107554;1271;36338;-73
2022/01/07 00:04:48;;;;;;;5.60;1.40;;;;;;;-4.80;73.77;97032.25;107530;1268;53987;-73
2022/01/07 00:07:19;;;;;;;5.20;2.20;;;;;;;-4.82;73.73;97029.35;107560;1268;47479;-73
2022/01/07 00:09:50;;;;;;;4.10;2.10;;;;;;;-4.84;74.02;97032.83;107512;1271;47232;-73
2022/01/07 00:12:22;;;;;;;7.20;2.80;;;;;;;-4.85;74.03;97039.14;107537;1271;44839;-73
2022/01/07 00:14:53;;;;;;;5.70;2.60;;;;;;;-4.90;74.25;97044.61;107565;1271;40875;-73
2022/01/07 00:17:24;;;;;;;5.00;2.40;;;;;;;-4.95;74.26;97051.66;107522;1271;46154;-73
2022/01/07 00:19:56;;;;;;;6.60;2.60;;;;;;;-4.98;74.40;97053.73;107537;1271;53344;-73
2022/01/07 00:22:27;;;;;;;5.00;2.40;;;;;;;-4.99;74.61;97057.13;107538;1271;42459;-73
2022/01/07 00:24:58;;;;;;;5.20;3.10;;;;;;;-5.03;74.78;97060.88;107624;1271;38640;-73
2022/01/07 00:27:29;;;;;;;6.70;2.70;;;;;;;-5.04;75.15;97057.23;107645;1271;30110;-73
2022/01/07 00:30:00;;;;;;;5.70;2.70;;;;;;;-5.02;75.02;97058.11;107558;1271;37088;-73
2022/01/07 00:32:31;;;;;;;5.70;2.90;;;;;;;-5.04;75.16;97060.30;107576;1271;35393;-73
2022/01/07 00:35:02;;;;;;;5.80;2.60;;;;;;;-5.09;75.24;97060.10;107688;1268;32942;-73
2022/01/07 00:37:33;;;;;;;6.30;2.60;;;;;;;-5.16;75.20;97061.44;107637;1268;39725;-73
2022/01/07 00:40:06;;;;;;;6.20;2.10;;;;;;;-5.23;75.29;97063.48;107575;1268;37604;-73
2022/01/07 00:42:37;;;;;;;5.80;2.50;;;;;;;-5.23;75.88;97067.46;107550;1268;53026;-74
2022/01/07 00:45:10;;;;;;;6.90;3.60;;;;;;;-5.23;75.92;97068.56;107445;1271;47968;-73
2022/01/07 00:47:41;;;;;;;8.40;3.30;;;;;;;-5.22;75.67;97071.40;107500;1268;44057;-73
2022/01/07 00:50:15;;;;;;;10.70;3.80;;;;;;;-5.25;75.80;97075.48;107544;1268;43158;-73
2022/01/07 00:52:46;;;;;;;5.50;2.90;;;;;;;-5.24;75.87;97079.91;107601;1268;54833;-73
2022/01/07 00:55:18;;;;;;;5.30;3.00;;;;;;;-5.28;75.95;97086.64;107611;1268;37432;-73
2022/01/07 00:57:49;;;;;;;8.40;2.70;;;;;;;-5.32;75.86;97092.09;107527;1268;39997;-73
2022/01/07 01:00:25;;;;;;;8.40;2.60;;;;;;;-5.32;76.30;97091.48;107488;1271;43032;-73
2022/01/07 01:02:57;;;;;;;7.20;2.80;;;;;;;-5.31;76.12;97094.61;107480;1271;33600;-73
2022/01/07 01:05:28;;;;;;;4.50;2.40;;;;;;;-5.30;76.29;97094.39;107458;1271;34506;-73
2022/01/07 01:07:59;;;;;;;6.40;2.80;;;;;;;-5.32;76.29;97090.27;107594;1268;53350;-73
2022/01/07 01:10:30;;;;;;;12.90;3.70;;;;;;;-5.33;76.49;97083.96;107530;1271;35306;-73
2022/01/07 01:13:02;;;;;;;4.20;2.00;;;;;;;-5.34;76.21;97087.55;107592;1268;32077;-73
2022/01/07 01:15:33;;;;;;;6.70;3.10;;;;;;;-5.32;76.48;97084.70;107486;1271;32392;-73
2022/01/07 01:18:05;;;;;;;3.80;1.80;;;;;;;-5.23;76.54;97082.34;107548;1268;38722;-74
2022/01/07 01:20:35;;;;;;;4.40;2.20;;;;;;;-5.12;76.48;97088.91;107574;1268;32002;-73
2022/01/07 01:23:06;;;;;;;4.40;2.10;;;;;;;-5.09;76.56;97091.25;107422;1271;52836;-73
2022/01/07 01:25:37;;;;;;;5.40;2.80;;;;;;;-5.07;76.33;97087.81;107540;1268;57854;-74
2022/01/07 01:28:08;;;;;;;5.60;2.40;;;;;;;-5.09;76.33;97087.69;107506;1268;43349;-73
2022/01/07 01:30:39;;;;;;;3.20;2.00;;;;;;;-5.12;76.23;97083.16;107546;1268;30489;-73
2022/01/07 01:33:12;;;;;;;3.10;1.70;;;;;;;-5.08;76.31;97083.39;107523;1268;41907;-73
2022/01/07 01:35:43;;;;;;;5.40;2.30;;;;;;;-5.03;76.37;97079.77;107499;1271;34470;-73
2022/01/07 01:38:14;;;;;;;5.50;2.30;;;;;;;-5.02;76.18;97079.98;107479;1268;45783;-73
2022/01/07 01:40:45;;;;;;;8.90;2.90;;;;;;;-5.04;75.93;97075.58;107462;1268;45972;-73
2022/01/07 01:43:18;;;;;;;5.90;2.60;;;;;;;-5.04;75.95;97080.98;107559;1268;36495;-73
2022/01/07 01:45:49;;;;;;;4.80;2.60;;;;;;;-5.04;75.93;97080.95;107573;1268;37876;-73
2022/01/07 01:48:20;;;;;;;7.30;3.30;;;;;;;-5.02;76.01;97080.34;107543;1268;33134;-73
2022/01/07 01:50:52;;;;;;;3.90;1.70;;;;;;;-4.99;75.98;97076.06;107541;1268;41776;-73
2022/01/07 01:53:24;;;;;;;3.50;1.80;;;;;;;-4.96;75.96;97072.45;107620;1268;33209;-73
2022/01/07 01:55:56;;;;;;;6.50;2.50;;;;;;;-4.95;75.98;97077.64;107465;1271;36696;-73
2022/01/07 01:58:27;;;;;;;6.00;2.20;;;;;;;-4.98;76.08;97071.30;107559;1268;37998;-73
2022/01/07 02:00:58;;;;;;;5.90;2.60;;;;;;;-5.02;75.68;97077.95;107557;1268;40907;-73
2022/01/07 02:03:29;;;;;;;4.60;2.20;;;;;;;-5.03;75.86;97079.45;107601;1268;35385;-73
2022/01/07 02:06:00;;;;;;;4.40;2.50;;;;;;;-5.02;75.91;97078.70;107673;1268;34573;-73
2022/01/07 02:08:31;;;;;;;5.60;3.00;;;;;;;-5.02;75.79;97078.79;107530;1271;45668;-73
2022/01/07 02:11:02;;;;;;;7.50;2.30;;;;;;;-5.04;76.02;97074.03;107499;1271;37844;-73
2022/01/07 02:13:33;;;;;;;4.00;2.50;;;;;;;-5.08;75.79;97067.29;107538;1271;32287;-73
2022/01/07 02:16:04;;;;;;;8.40;3.10;;;;;;;-5.10;75.78;97065.77;107578;1268;35236;-74
2022/01/07 02:18:36;;;;;;;7.70;1.90;;;;;;;-5.11;75.91;97069.29;107480;1270;57386;-74
2022/01/07 02:21:06;;;;;;;5.10;1.80;;;;;;;-5.14;75.76;97061.36;107510;1268;43323;-73
2022/01/07 02:23:38;;;;;;;7.00;2.70;;;;;;;-5.13;76.00;97065.08;107486;1268;46862;-73
2022/01/07 02:26:10;;;;;;;6.80;2.90;;;;;;;-5.14;75.84;97065.30;107565;1268;35304;-74
2022/01/07 02:28:44;;;;;;;7.70;2.80;;;;;;;-5.18;75.61;97065.59;107410;1271;47256;-73
2022/01/07 02:31:15;;;;;;;5.60;2.30;;;;;;;-5.22;75.81;97065.14;107531;1268;30918;-73
2022/01/07 02:33:46;;;;;;;4.80;2.10;;;;;;;-5.22;75.72;97070.05;107587;1268;41193;-73
2022/01/07 02:36:17;;;;;;;9.40;2.90;;;;;;;-5.26;76.01;97071.98;107549;1268;43683;-73
2022/01/07 02:38:48;;;;;;;9.60;3.40;;;;;;;-5.30;75.87;97068.70;107492;1271;30967;-73
2022/01/07 02:41:18;;;;;;;6.10;2.80;;;;;;;-5.35;75.62;97068.88;107544;1268;46808;-74
2022/01/07 02:43:49;;;;;;;3.20;2.00;;;;;;;-5.40;75.83;97068.34;107539;1268;45682;-73
2022/01/07 02:46:20;;;;;;;6.20;2.50;;;;;;;-5.42;75.92;97071.25;107559;1268;45379;-73
2022/01/07 02:48:51;;;;;;;9.30;3.50;;;;;;;-5.43;76.21;97070.76;107646;1268;34178;-74
2022/01/07 02:51:22;;;;;;;7.20;3.30;;;;;;;-5.45;75.87;97071.46;107562;1268;38292;-73
2022/01/07 02:53:53;;;;;;;6.60;2.70;;;;;;;-5.46;75.86;97073.35;107590;1268;31128;-73
2022/01/07 02:56:25;;;;;;;4.10;2.10;;;;;;;-5.48;75.96;97071.32;107505;1271;31559;-73
2022/01/07 02:58:55;;;;;;;7.10;2.90;;;;;;;-5.51;75.87;97070.02;107550;1268;51216;-73
2022/01/07 03:01:26;;;;;;;5.20;2.50;;;;;;;-5.54;75.75;97070.89;107560;1268;38574;-73
2022/01/07 03:03:58;;;;;;;4.80;2.10;;;;;;;-5.59;76.00;97065.41;107495;1271;32657;-73
2022/01/07 03:06:29;;;;;;;6.30;3.20;;;;;;;-5.60;75.81;97061.59;107602;1268;45814;-73
2022/01/07 03:09:00;;;;;;;5.20;2.30;;;;;;;-5.60;76.04;97062.15;107576;1268;34360;-73
2022/01/07 03:11:31;;;;;;;4.50;1.80;;;;;;;-5.63;76.32;97062.44;107548;1271;36059;-73
2022/01/07 03:14:02;;;;;;;7.90;2.60;;;;;;;-5.64;76.07;97059.49;107606;1268;34860;-73
2022/01/07 03:16:33;;;;;;;7.20;2.80;;;;;;;-5.66;75.95;97061.85;107653;1268;33118;-73
2022/01/07 03:19:04;;;;;;;7.70;2.40;;;;;;;-5.71;76.08;97065.17;107646;1268;30101;-74
2022/01/07 03:21:35;;;;;;;8.00;3.00;;;;;;;-5.74;76.07;97063.80;107599;1266;35274;-74
2022/01/07 03:24:06;;;;;;;4.90;2.00;;;;;;;-5.76;76.35;97059.67;107460;1271;43234;-74
2022/01/07 03:26:37;;;;;;;7.50;2.30;;;;;;;-5.75;76.18;97066.83;107577;1268;37642;-74
2022/01/07 03:29:08;;;;;;;4.80;1.80;;;;;;;-5.76;76.00;97068.48;107407;1271;39851;-73
2022/01/07 03:31:39;;;;;;;3.70;2.30;;;;;;;-5.77;76.25;97068.42;107445;1271;41120;-73
2022/01/07 03:34:10;;;;;;;4.40;2.30;;;;;;;-5.80;76.07;97065.91;107452;1271;42608;-73
2022/01/07 03:36:41;;;;;;;2.50;1.90;;;;;;;-5.83;76.27;97074.07;107532;1271;32921;-73
2022/01/07 03:39:11;;;;;;;2.80;2.20;;;;;;;-5.87;76.33;97076.75;107509;1268;35181;-73
2022/01/07 03:41:42;;;;;;;3.60;1.50;;;;;;;-5.87;76.13;97079.27;107506;1268;50137;-73
2022/01/07 03:44:13;;;;;;;6.90;2.30;;;;;;;-5.88;76.33;97078.77;107468;1271;43383;-73
2022/01/07 03:46:44;;;;;;;5.40;3.10;;;;;;;-5.91;76.08;97077.31;107510;1268;45032;-73
2022/01/07 03:49:15;;;;;;;9.80;3.20;;;;;;;-5.92;76.29;97075.39;107506;1268;43391;-73
2022/01/07 03:51:46;;;;;;;6.80;3.70;;;;;;;-5.94;76.27;97073.59;107523;1268;34194;-73
2022/01/07 03:54:17;;;;;;;6.50;2.80;;;;;;;-5.94;76.22;97078.23;107422;1268;35428;-73
2022/01/07 03:56:48;;;;;;;4.80;2.30;;;;;;;-5.94;76.05;97080.11;107578;1268;33113;-74
2022/01/07 03:59:18;;;;;;;4.60;2.50;;;;;;;-5.95;76.26;97085.40;107594;1268;34412;-73
2022/01/07 04:01:49;;;;;;;6.60;3.00;;;;;;;-5.96;76.20;97083.02;107542;1268;41427;-74
2022/01/07 04:04:20;;;;;;;5.50;2.50;;;;;;;-5.99;76.13;97081.57;107493;1268;48593;-74
2022/01/07 04:06:51;;;;;;;6.20;2.80;;;;;;;-6.00;76.35;97079.19;107627;1268;32765;-74
2022/01/07 04:09:21;;;;;;;2.80;2.30;;;;;;;-6.02;75.95;97075.55;107586;1268;34558;-74
2022/01/07 04:11:52;;;;;;;3.30;1.90;;;;;;;-6.00;75.83;97077.45;107532;1268;35110;-74
2022/01/07 04:14:24;;;;;;;5.10;2.40;;;;;;;-5.97;75.78;97080.44;107512;1270;38794;-74
2022/01/07 04:16:55;;;;;;;8.30;2.80;;;;;;;-5.96;75.75;97081.11;107613;1268;35444;-74
2022/01/07 04:19:26;;;;;;;6.90;2.80;;;;;;;-5.91;75.62;97085.27;107589;1268;35699;-74
2022/01/07 04:21:57;;;;;;;4.20;2.70;;;;;;;-5.89;75.02;97089.01;107561;1268;45673;-74
2022/01/07 04:24:28;;;;;;;7.70;3.20;;;;;;;-5.87;75.05;97088.48;107439;1270;33455;-74
2022/01/07 04:26:59;;;;;;;6.90;2.40;;;;;;;-5.94;74.96;97087.65;107675;1268;29779;-74
2022/01/07 04:29:29;;;;;;;5.40;2.30;;;;;;;-5.99;75.13;97083.67;107648;1268;30842;-74
2022/01/07 04:32:01;;;;;;;5.10;2.40;;;;;;;-6.06;75.23;97081.99;107557;1270;42206;-74
2022/01/07 04:34:32;;;;;;;9.40;2.90;;;;;;;-6.09;75.33;97082.17;107627;1268;32166;-74
2022/01/07 04:37:03;;;;;;;2.10;1.80;;;;;;;-6.13;75.25;97078.67;107669;1267;36357;-74
2022/01/07 04:39:34;;;;;;;12.20;3.40;;;;;;;-6.15;75.57;97083.96;107500;1268;31055;-75
2022/01/07 04:42:06;;;;;;;6.30;2.50;;;;;;;-6.15;75.42;97075.73;107459;1269;52913;-74
2022/01/07 04:44:40;;;;;;;8.10;2.00;;;;;;;-6.15;75.85;97089.74;107619;1268;35349;-74
2022/01/07 04:47:12;;;;;;;8.10;2.80;;;;;;;-6.15;75.83;97089.04;107505;1268;44382;-74
2022/01/07 04:49:42;;;;;;;3.00;1.80;;;;;;;-6.15;75.86;97087.26;107544;1268;33532;-74
2022/01/07 04:52:13;;;;;;;2.40;1.40;;;;;;;-6.13;75.75;97091.98;107571;1268;33958;-74
2022/01/07 04:54:44;;;;;;;4.30;1.70;;;;;;;-6.13;75.71;97093.26;107614;1268;30570;-74
2022/01/07 04:57:15;;;;;;;6.40;1.90;;;;;;;-6.16;75.64;97091.52;107576;1268;35465;-74
2022/01/07 04:59:46;;;;;;;5.80;2.70;;;;;;;-6.18;75.49;97098.62;107539;1268;44164;-74
2022/01/07 05:02:19;;;;;;;5.80;2.50;;;;;;;-6.17;75.25;97094.59;107473;1270;45783;-74
2022/01/07 05:04:50;;;;;;;4.10;2.40;;;;;;;-6.16;75.42;97103.91;107482;1268;38110;-74
2022/01/07 05:07:20;;;;;;;5.80;3.10;;;;;;;-6.20;75.17;97104.16;107477;1271;36883;-74
2022/01/07 05:09:51;;;;;;;6.50;1.60;;;;;;;-6.22;75.25;97101.42;107453;1269;44517;-74
2022/01/07 05:12:22;;;;;;;4.80;2.10;;;;;;;-6.20;75.22;97101.73;107561;1268;43062;-74
2022/01/07 05:14:53;;;;;;;6.30;3.00;;;;;;;-6.20;75.33;97104.02;107497;1268;47835;-74
2022/01/07 05:17:24;;;;;;;6.40;2.00;;;;;;;-6.23;75.37;97097.21;107538;1268;42047;-74
2022/01/07 05:19:55;;;;;;;8.60;2.90;;;;;;;-6.24;75.44;97096.02;107528;1270;41805;-74
2022/01/07 05:22:26;;;;;;;9.50;3.10;;;;;;;-6.26;75.62;97092.02;107559;1269;33022;-74
2022/01/07 05:24:56;;;;;;;5.20;3.00;;;;;;;-6.25;75.74;97093.35;107451;1270;41975;-74
2022/01/07 05:27:27;;;;;;;8.30;2.40;;;;;;;-6.24;75.50;97088.73;107514;1270;35431;-74
2022/01/07 05:29:58;;;;;;;2.90;1.50;;;;;;;-6.20;75.55;97086.44;107480;1270;36146;-74
2022/01/07 05:32:29;;;;;;;3.50;1.90;;;;;;;-6.20;75.42;97090.27;107585;1270;29624;-74
2022/01/07 05:35:00;;;;;;;6.00;2.10;;;;;;;-6.22;75.41;97095.95;107573;1270;29856;-74
2022/01/07 05:37:30;;;;;;;5.00;2.10;;;;;;;-6.23;75.36;97094.82;107478;1270;47475;-74
2022/01/07 05:40:02;;;;;;;5.80;2.40;;;;;;;-6.23;75.47;97094.02;107589;1270;50524;-74
2022/01/07 05:42:33;;;;;;;5.10;2.00;;;;;;;-6.20;75.37;97093.31;107560;1268;36758;-74
2022/01/07 05:45:04;;;;;;;4.60;2.30;;;;;;;-6.18;75.43;97094.30;107510;1270;43390;-74
2022/01/07 05:47:35;;;;;;;7.90;2.30;;;;;;;-6.18;74.94;97092.10;107571;1268;44583;-74
2022/01/07 05:50:07;;;;;;;4.70;2.40;;;;;;;-6.16;74.78;97092.52;107530;1268;43781;-75
2022/01/07 05:52:39;;;;;;;4.00;1.30;;;;;;;-6.14;74.71;97090.52;107556;1268;46071;-74
2022/01/07 05:55:10;;;;;;;5.90;2.00;;;;;;;-6.16;74.66;97084.94;107557;1270;33590;-74
2022/01/07 05:57:41;;;;;;;3.70;1.70;;;;;;;-6.15;74.67;97091.39;107612;1267;32961;-74
2022/01/07 06:00:13;;;;;;;6.30;2.50;;;;;;;-6.14;74.40;97085.88;107451;1270;34057;-74
2022/01/07 06:02:44;;;;;;;6.90;2.40;;;;;;;-6.14;74.12;97087.91;107536;1270;35127;-74
2022/01/07 06:05:15;;;;;;;8.70;2.20;;;;;;;-6.08;73.88;97087.92;107565;1270;34897;-74
2022/01/07 06:07:46;;;;;;;7.10;2.40;;;;;;;-6.09;74.22;97093.14;107418;1270;41155;-74
2022/01/07 06:10:17;;;;;;;5.50;2.60;;;;;;;-6.17;74.02;97098.33;107472;1270;33060;-74
2022/01/07 06:12:48;;;;;;;4.40;1.70;;;;;;;-6.24;74.29;97098.02;107530;1271;42566;-74
2022/01/07 06:15:19;;;;;;;7.60;3.10;;;;;;;-6.25;74.35;97101.73;107568;1268;38426;-74
2022/01/07 06:17:50;;;;;;;2.50;1.20;;;;;;;-6.24;74.59;97106.44;107520;1268;45640;-74
2022/01/07 06:20:21;;;;;;;5.10;2.20;;;;;;;-6.20;74.30;97101.02;107555;1268;35377;-74
2022/01/07 06:22:52;;;;;;;3.20;1.90;;;;;;;-6.18;74.33;97096.59;107576;1268;41548;-74
2022/01/07 06:25:23;;;;;;;4.40;1.80;;;;;;;-6.18;74.25;97094.00;107588;1268;41881;-74
2022/01/07 06:27:54;;;;;;;3.50;2.50;;;;;;;-6.18;74.16;97094.33;107574;1269;32077;-73
2022/01/07 06:30:25;;;;;;;3.80;2.40;;;;;;;-6.16;74.01;97094.84;107547;1270;41306;-74
2022/01/07 06:32:56;;;;;;;4.30;1.90;;;;;;;-6.14;73.79;97091.09;107518;1270;38384;-74
2022/01/07 06:35:27;;;;;;;8.50;2.00;;;;;;;-6.11;73.72;97087.70;107588;1270;35825;-74
2022/01/07 06:37:58;;;;;;;6.70;2.10;;;;;;;-6.12;73.42;97086.25;107582;1268;41236;-74
2022/01/07 06:40:29;;;;;;;5.60;1.90;;;;;;;-6.13;73.34;97082.06;107662;1268;49346;-74
2022/01/07 06:43:01;;;;;;;4.90;2.10;;;;;;;-6.11;73.12;97083.45;107638;1268;37809;-74
2022/01/07 06:45:32;;;;;;;5.00;2.90;;;;;;;-6.09;72.85;97075.63;107620;1269;34249;-74
2022/01/07 06:48:03;;;;;;;3.40;1.40;;;;;;;-6.05;72.99;97074.52;107500;1270;41997;-74
2022/01/07 06:50:35;;;;;;;4.80;2.00;;;;;;;-6.04;72.45;97065.06;107563;1270;44043;-74
2022/01/07 06:53:06;;;;;;;3.90;2.00;;;;;;;-6.00;72.37;97057.80;107491;1268;44452;-74
2022/01/07 06:55:37;;;;;;;4.60;1.20;;;;;;;-5.98;72.16;97056.05;107553;1268;36205;-74
2022/01/07 06:58:08;;;;;;;6.90;2.40;;;;;;;-5.98;72.05;97052.95;107516;1271;42991;-74
2022/01/07 07:00:39;;;;;;;6.60;1.60;;;;;;;-5.97;72.07;97050.46;107560;1268;32549;-74
2022/01/07 07:03:10;;;;;;;4.90;1.80;;;;;;;-5.97;71.68;97052.69;107578;1268;37001;-73
2022/01/07 07:05:41;;;;;;;3.20;1.60;;;;;;;-5.94;71.79;97050.64;107451;1269;35236;-73
2022/01/07 07:08:12;;;;;;;4.60;2.40;;;;;;;-5.92;71.67;97048.70;107558;1268;44412;-73
2022/01/07 07:10:43;;;;;;;4.90;2.70;;;;;;;-5.74;71.43;97044.88;107557;1270;31117;-73
2022/01/07 07:13:14;;;;;;;6.00;2.30;;;;;;;-5.28;71.41;97044.83;107492;1269;48434;-73
2022/01/07 07:15:45;;;;;;;9.50;2.90;;;;;;;-4.85;70.52;97045.73;107499;1270;34399;-74
2022/01/07 07:18:17;;;;;;;6.90;2.70;;;;;;;-4.54;69.76;97043.31;107526;1268;47658;-73
2022/01/07 07:20:48;;;;;;;6.80;2.40;;;;;;;-4.30;69.00;97043.71;107453;1270;29583;-74
2022/01/07 07:23:19;;;;;;;7.80;3.20;;;;;;;-4.24;67.99;97045.66;107540;1268;46132;-74
2022/01/07 07:25:51;;;;;;;6.80;2.70;;;;;;;-4.10;67.57;97041.02;107604;1270;32032;-73
2022/01/07 07:28:22;;;;;;;7.30;2.80;;;;;;;-3.95;67.06;97043.96;107467;1268;157302;-73
2022/01/07 07:30:56;;;;;;;3.40;2.10;;;;;;;-3.76;66.46;97041.73;107517;1268;50581;-73
2022/01/07 07:33:53;;;;;;;7.10;3.10;;;;;;;-3.62;65.73;97041.63;107536;1268;39040;-73
2022/01/07 07:36:27;;;;;;;6.10;1.80;;;;;;;-3.50;65.32;97039.40;107594;1268;40702;-73
2022/01/07 07:39:01;;;;;;;3.60;2.30;;;;;;;-3.33;64.76;97039.57;107558;1270;32974;-73
2022/01/07 07:41:33;;;;;;;6.40;3.00;;;;;;;-3.27;63.66;97036.92;107665;1268;46257;-73
2022/01/07 07:44:05;;;;;;;5.20;2.80;;;;;;;-3.12;64.15;97035.17;107577;1270;42701;-73
2022/01/07 07:46:37;;;;;;;6.50;2.20;;;;;;;-3.02;63.14;97026.44;107613;1268;35037;-74
2022/01/07 07:49:10;;;;;;;5.50;2.50;;;;;;;-3.05;62.46;97035.73;107599;1268;33474;-74
2022/01/07 07:51:41;;;;;;;5.60;2.20;;;;;;;-3.08;62.38;97035.34;107553;1269;35819;-74
2022/01/07 07:54:13;;;;;;;2.90;1.50;;;;;;;-3.13;62.06;97039.73;107540;1268;45733;-73
2022/01/07 07:56:44;;;;;;;6.00;2.50;;;;;;;-3.18;62.23;97046.35;107556;1268;40283;-73
2022/01/07 07:59:15;;;;;;;4.60;2.20;;;;;;;-3.27;61.35;97052.98;107448;1270;34712;-73
2022/01/07 08:01:46;;;;;;;6.50;2.80;;;;;;;-3.40;61.42;97056.07;107540;1270;39893;-74
2022/01/07 08:04:19;;;;;;;9.70;3.70;;;;;;;-3.39;61.41;97064.25;107531;1268;46152;-73
2022/01/07 08:06:51;;;;;;;5.40;2.20;;;;;;;-3.55;61.16;97059.33;107557;1268;36707;-74
2022/01/07 08:09:26;;;;;;;5.90;3.20;;;;;;;-3.59;61.78;97063.63;107540;1268;40159;-74
2022/01/07 08:12:05;;;;;;;5.80;3.00;;;;;;;-3.63;61.71;97066.36;107558;1270;32936;-73
2022/01/07 08:17:25;;;;;;;5.70;3.20;;;;;;;-3.68;61.10;97058.83;107545;1268;47403;-73
2022/01/07 08:19:56;;;;;;;6.70;3.10;;;;;;;-3.70;61.32;97061.91;107631;1268;33485;-73
2022/01/07 08:22:28;;;;;;;6.20;3.20;;;;;;;-3.56;61.77;97057.95;107573;1268;49063;-73
2022/01/07 08:24:59;;;;;;;5.60;2.90;;;;;;;-3.58;61.24;97058.50;107585;1268;43141;-73
2022/01/07 08:27:30;;;;;;;8.80;4.60;;;;;;;-3.63;61.63;97057.52;107561;1270;36942;-73
2022/01/07 08:30:10;;;;;;;11.10;4.70;;;;;;;-3.64;61.53;97057.39;107615;1268;38394;-73
2022/01/07 08:35:31;;;;;;;7.40;3.20;;;;;;;-3.61;61.42;97046.95;107571;1268;34561;-73
2022/01/07 08:38:03;;;;;;;7.50;3.60;;;;;;;-3.61;61.85;97046.02;107567;1268;45041;-73
2022/01/07 08:40:34;;;;;;;10.30;4.60;;;;;;;-3.59;61.68;97040.14;107551;1268;51068;-73
2022/01/07 08:43:08;;;;;;;8.10;4.10;;;;;;;-3.50;61.70;97038.23;107568;1268;44988;-73
2022/01/07 08:45:43;;;;;;;5.70;4.10;;;;;;;-3.44;61.51;97040.14;107565;1268;35862;-73
2022/01/07 08:48:15;;;;;;;11.50;4.20;;;;;;;-3.44;61.75;97039.95;107570;1268;43496;-73
2022/01/07 08:50:46;;;;;;;7.80;4.30;;;;;;;-3.38;61.72;97042.90;107614;1268;47305;-73
2022/01/07 08:53:17;;;;;;;4.00;2.90;;;;;;;-3.37;61.36;97048.98;107569;1271;34005;-73
2022/01/07 08:55:49;;;;;;;7.90;3.30;;;;;;;-3.29;61.59;97049.91;107553;1268;46844;-73
2022/01/07 08:58:20;;;;;;;10.50;3.70;;;;;;;-3.19;61.50;97055.88;107601;1268;37115;-73
2022/01/07 09:00:52;;;;;;;6.90;3.40;;;;;;;-3.06;61.48;97056.83;107555;1270;33786;-73
2022/01/07 09:03:23;;;;;;;11.00;5.00;;;;;;;-2.95;60.88;97052.00;107433;1270;44414;-73
2022/01/07 09:05:55;;;;;;;9.10;3.80;;;;;;;-2.97;60.94;97057.24;107532;1268;41426;-72
2022/01/07 09:08:26;;;;;;;9.20;3.50;;;;;;;-2.87;61.14;97051.89;107598;1270;31871;-72
2022/01/07 09:10:59;;;;;;;9.90;4.30;;;;;;;-2.92;60.87;97051.13;107531;1270;36505;-72
2022/01/07 09:13:31;;;;;;;17.20;6.30;;;;;;;-3.02;61.08;97047.73;107607;1270;38426;-72
2022/01/07 09:16:03;;;;;;;14.70;6.30;;;;;;;-3.08;60.80;97045.88;107587;1270;41731;-73
2022/01/07 09:18:33;;;;;;;18.10;7.00;;;;;;;-3.13;61.03;97044.56;107600;1270;42982;-72
2022/01/07 09:21:04;;;;;;;12.10;6.00;;;;;;;-3.05;61.17;97044.70;107608;1268;47385;-72
2022/01/07 09:23:39;;;;;;;9.00;4.90;;;;;;;-2.93;61.46;97037.23;107529;1268;43447;-74
2022/01/07 09:26:11;;;;;;;12.80;6.50;;;;;;;-2.86;61.22;97038.54;107562;1268;41379;-72
2022/01/07 09:28:42;;;;;;;12.90;5.90;;;;;;;-2.73;61.56;97036.99;107602;1268;42800;-72
2022/01/07 09:31:14;;;;;;;14.40;6.20;;;;;;;-2.61;61.08;97035.64;107506;1270;37717;-72
2022/01/07 09:33:45;;;;;;;11.90;5.10;;;;;;;-2.56;60.59;97034.29;107571;1268;34731;-72
2022/01/07 09:36:16;;;;;;;9.40;5.30;;;;;;;-2.60;60.28;97027.70;107576;1269;36517;-72
2022/01/07 09:38:48;;;;;;;11.00;6.20;;;;;;;-2.64;60.20;97021.21;107601;1268;41011;-72
2022/01/07 09:41:19;;;;;;;13.40;5.70;;;;;;;-2.60;60.45;97025.59;107540;1270;33158;-72
2022/01/07 09:43:50;;;;;;;11.70;5.50;;;;;;;-2.55;60.28;97028.83;107428;1270;45654;-72
2022/01/07 09:46:21;;;;;;;10.90;5.00;;;;;;;-2.52;60.17;97024.17;107566;1270;34728;-72
2022/01/07 09:48:53;;;;;;;8.10;3.00;;;;;;;-2.43;59.77;97024.52;107585;1268;35382;-72
2022/01/07 09:51:26;;;;;;;14.30;5.40;;;;;;;-2.42;59.49;97025.25;107560;1268;47834;-72
2022/01/07 09:53:59;;;;;;;8.40;4.50;;;;;;;-2.24;59.82;97026.80;107607;1270;41420;-72
2022/01/07 09:56:31;;;;;;;8.50;4.30;;;;;;;-2.05;59.49;97020.61;107682;1268;40002;-72
2022/01/07 09:59:05;;;;;;;7.50;4.00;;;;;;;-1.84;58.55;97014.65;107655;1268;41989;-72
2022/01/07 10:01:55;;;;;;;7.40;3.60;;;;;;;-1.68;58.73;97018.30;107606;1268;32436;-73
2022/01/07 10:04:32;;;;;;;8.40;3.80;;;;;;;-1.56;57.99;97009.65;107661;1268;40414;-72
2022/01/07 10:07:20;;;;;;;9.20;3.90;;;;;;;-1.54;57.46;97010.60;107683;1268;40795;-72
2022/01/07 10:10:04;;;;;;;8.50;3.80;;;;;;;-1.52;57.17;97004.17;107576;1268;36604;-72
2022/01/07 10:12:51;;;;;;;9.80;3.90;;;;;;;-1.55;57.14;97000.30;107538;1268;43237;-73
2022/01/07 10:15:25;;;;;;;8.10;3.20;;;;;;;-1.50;57.08;96997.98;107601;1268;38182;-72
2022/01/07 10:18:05;;;;;;;7.90;3.00;;;;;;;-1.39;56.87;96998.70;107556;1270;40074;-72
2022/01/07 10:20:37;;;;;;;6.30;3.50;;;;;;;-1.40;55.52;96999.65;107644;1268;45101;-73
2022/01/07 10:23:10;;;;;;;11.60;3.80;;;;;;;-1.48;54.96;96996.34;107560;1268;47568;-73
2022/01/07 10:25:43;;;;;;;8.70;4.30;;;;;;;-1.47;55.37;97000.62;107556;1268;47779;-73
2022/01/07 10:28:16;;;;;;;8.20;3.80;;;;;;;-1.39;54.93;97002.27;107615;1268;41126;-72
2022/01/07 10:30:50;;;;;;;7.40;3.90;;;;;;;-1.27;55.03;96999.23;107552;1268;32396;-73
2022/01/07 10:33:26;;;;;;;9.40;4.30;;;;;;;-1.16;54.37;96996.88;107569;1268;37111;-72
2022/01/07 10:36:14;;;;;;;10.70;4.20;;;;;;;-1.06;54.39;96996.95;107552;1268;39752;-72
2022/01/07 10:38:53;;;;;;;9.30;3.50;;;;;;;-0.96;54.91;96993.19;107553;1268;41065;-72
2022/01/07 10:41:25;;;;;;;7.80;3.50;;;;;;;-0.99;54.09;96995.17;107626;1270;37087;-73
2022/01/07 10:44:02;;;;;;;8.80;3.70;;;;;;;-0.95;53.68;96996.44;107539;1268;33516;-72
2022/01/07 10:46:33;;;;;;;10.60;4.40;;;;;;;-0.91;54.04;96989.27;107649;1268;39226;-72
2022/01/07 10:49:06;;;;;;;9.00;4.20;;;;;;;-0.82;53.75;96996.76;107647;1268;32905;-73
2022/01/07 10:51:43;;;;;;;8.50;4.10;;;;;;;-0.79;53.78;96988.23;107608;1268;31511;-73
2022/01/07 10:54:19;;;;;;;7.40;4.00;;;;;;;-0.72;53.99;96988.03;107582;1268;42029;-73
2022/01/07 10:56:51;;;;;;;8.80;5.30;;;;;;;-0.60;53.72;96988.54;107560;1268;41437;-72
2022/01/07 10:59:23;;;;;;;11.50;5.30;;;;;;;-0.49;53.75;96982.71;107632;1268;41678;-72
2022/01/07 11:01:59;;;;;;;8.20;4.30;;;;;;;-0.49;53.23;96981.06;107571;1268;42359;-72
2022/01/07 11:04:32;;;;;;;9.70;4.10;;;;;;;-0.48;53.14;96978.02;107529;1268;34223;-72
2022/01/07 11:07:12;;;;;;;10.90;4.30;;;;;;;-0.43;53.27;96968.80;107656;1270;27600;-73
2022/01/07 11:09:43;;;;;;;8.30;3.80;;;;;;;-0.35;53.35;96969.58;107323;1271;71002;-73
2022/01/07 11:12:16;;;;;;;13.20;5.50;;;;;;;-0.33;52.86;96965.05;107523;1271;33024;-72
2022/01/07 11:14:47;;;;;;;9.30;4.40;;;;;;;-0.27;53.30;96959.80;107472;1270;42889;-73
2022/01/07 11:17:21;;;;;;;13.00;5.00;;;;;;;-0.17;53.52;96960.35;107543;1270;44462;-72
2022/01/07 11:19:55;;;;;;;10.90;5.70;;;;;;;-0.13;52.79;96958.48;107526;1270;43757;-72
2022/01/07 11:22:28;;;;;;;10.70;4.40;;;;;;;-0.12;52.92;96955.94;107501;1270;41523;-73
2022/01/07 11:25:11;;;;;;;10.10;4.20;;;;;;;-0.16;51.82;96950.89;107539;1270;38941;-73
2022/01/07 11:27:52;;;;;;;10.60;5.40;;;;;;;-0.20;52.07;96946.05;107560;1270;38574;-73
2022/01/07 11:30:23;;;;;;;;;;;;;;;-0.18;52.30;96946.36;107621;1268;35912;-73
2022/01/07 11:32:55;;;;;;;11.10;5.00;;;;;;;-0.11;52.53;96939.52;107507;1271;37424;-72
2022/01/07 11:35:49;;;;;;;8.60;4.20;;;;;;;-0.02;52.23;96940.11;107573;1268;45135;-73
2022/01/07 11:38:38;;;;;;;7.20;3.80;;;;;;;-0.06;51.54;96932.20;107593;1268;46151;-73
2022/01/07 11:41:37;;;;;;;9.60;4.60;;;;;;;0.02;51.54;96929.43;107564;1270;51205;-73
2022/01/07 11:44:23;;;;;;;9.70;4.30;;;;;;;0.01;51.43;96930.39;107579;1268;35811;-73
2022/01/07 11:47:09;;;;;;;11.40;5.10;;;;;;;0.07;51.21;96930.94;107510;1270;42163;-73
2022/01/07 11:49:40;;;;;;;8.00;4.20;;;;;;;0.24;51.51;96929.53;107410;1271;42507;-73
2022/01/07 11:52:34;;;;;;;11.30;4.90;;;;;;;0.31;50.86;96923.83;107546;1270;36778;-73
2022/01/07 11:55:31;;;;;;;8.90;4.40;;;;;;;0.42;50.97;96925.11;107638;1268;36074;-73